Weather at Lafayette Regional Airport

Public forecast

Using degrees Fahrenheit for public forecast. Weather courtesy of forecast.io.

Current aviation weather report (METAR) for Lafayette Regional Airport

Retrieved 2021/01/27 17:53 UTC (44 minutes ago):

KLFT 271753Z 35016KT 10SM FEW020 19/14 A3015 RMK AO2 SLP207 6//// T01890139 51021

Aviation forecast (TAF) for Lafayette Regional Airport

Retrieved 2021/01/27 18:33 UTC (4 minutes ago):

TAF KLFT 271731Z 2718/2818 34015G24KT P6SM SCT250 FM272300 36012KT P6SM FEW250 FM280100 01007KT P6SM FEW250 FM281500 03011KT P6SM SCT030